sensor_id;sensor_type;location;lat;lon;timestamp;temperature;humidity
41427;DHT22;27171;51.812;19.514;2023-02-01T00:00:52;2.70;99.90
41427;DHT22;27171;51.812;19.514;2023-02-01T00:03:53;2.70;99.90
41427;DHT22;27171;51.812;19.514;2023-02-01T00:06:55;2.70;99.90
41427;DHT22;27171;51.812;19.514;2023-02-01T00:09:55;2.60;99.90
41427;DHT22;27171;51.812;19.514;2023-02-01T00:12:57;2.60;99.90
41427;DHT22;27171;51.812;19.514;2023-02-01T00:19:07;2.60;99.90
41427;DHT22;27171;51.812;19.514;2023-02-01T00:22:08;2.60;99.90
41427;DHT22;27171;51.812;19.514;2023-02-01T00:25:09;2.50;99.90
41427;DHT22;27171;51.812;19.514;2023-02-01T00:28:10;2.50;99.90
41427;DHT22;27171;51.812;19.514;2023-02-01T00:31:12;2.50;99.90
41427;DHT22;27171;51.812;19.514;2023-02-01T00:34:15;2.50;99.90
41427;DHT22;27171;51.812;19.514;2023-02-01T00:37:17;2.40;99.90
41427;DHT22;27171;51.812;19.514;2023-02-01T00:40:18;2.40;99.90
41427;DHT22;27171;51.812;19.514;2023-02-01T00:43:19;2.40;99.90
41427;DHT22;27171;51.812;19.514;2023-02-01T00:46:20;2.40;99.90
41427;DHT22;27171;51.812;19.514;2023-02-01T00:49:21;2.40;99.90
41427;DHT22;27171;51.812;19.514;2023-02-01T00:52:22;2.40;99.90
41427;DHT22;27171;51.812;19.514;2023-02-01T00:55:24;2.40;99.90
41427;DHT22;27171;51.812;19.514;2023-02-01T00:58:25;2.40;99.90
41427;DHT22;27171;51.812;19.514;2023-02-01T01:01:27;2.40;99.90
41427;DHT22;27171;51.812;19.514;2023-02-01T01:04:29;2.40;99.90
41427;DHT22;27171;51.812;19.514;2023-02-01T01:07:31;2.40;99.90
41427;DHT22;27171;51.812;19.514;2023-02-01T01:10:32;2.40;99.90
41427;DHT22;27171;51.812;19.514;2023-02-01T01:13:34;2.40;99.90
41427;DHT22;27171;51.812;19.514;2023-02-01T01:16:35;2.40;99.90
41427;DHT22;27171;51.812;19.514;2023-02-01T01:19:36;2.30;99.90
41427;DHT22;27171;51.812;19.514;2023-02-01T01:22:37;2.40;99.90
41427;DHT22;27171;51.812;19.514;2023-02-01T01:25:39;2.40;99.90
41427;DHT22;27171;51.812;19.514;2023-02-01T01:28:40;2.40;99.90
41427;DHT22;27171;51.812;19.514;2023-02-01T01:31:41;2.30;99.90
41427;DHT22;27171;51.812;19.514;2023-02-01T01:34:42;2.30;99.90
41427;DHT22;27171;51.812;19.514;2023-02-01T01:37:43;2.30;99.90
41427;DHT22;27171;51.812;19.514;2023-02-01T01:40:46;2.30;99.90
41427;DHT22;27171;51.812;19.514;2023-02-01T01:43:55;2.30;99.90
41427;DHT22;27171;51.812;19.514;2023-02-01T01:46:58;2.20;99.90
41427;DHT22;27171;51.812;19.514;2023-02-01T01:50:01;2.20;99.90
41427;DHT22;27171;51.812;19.514;2023-02-01T01:53:06;2.20;99.90
41427;DHT22;27171;51.812;19.514;2023-02-01T01:56:09;2.20;99.90
41427;DHT22;27171;51.812;19.514;2023-02-01T01:59:10;2.20;99.90
41427;DHT22;27171;51.812;19.514;2023-02-01T02:02:12;2.20;99.90
41427;DHT22;27171;51.812;19.514;2023-02-01T02:05:14;2.20;99.90
41427;DHT22;27171;51.812;19.514;2023-02-01T02:08:18;2.20;99.90
41427;DHT22;27171;51.812;19.514;2023-02-01T02:11:19;2.20;99.90
41427;DHT22;27171;51.812;19.514;2023-02-01T02:14:23;2.20;99.90
41427;DHT22;27171;51.812;19.514;2023-02-01T02:17:40;2.20;99.90
41427;DHT22;27171;51.812;19.514;2023-02-01T02:44:36;2.30;99.90
41427;DHT22;27171;51.812;19.514;2023-02-01T02:47:48;2.30;99.90
41427;DHT22;27171;51.812;19.514;2023-02-01T02:54:11;2.30;99.90
41427;DHT22;27171;51.812;19.514;2023-02-01T03:00:21;2.30;99.90
41427;DHT22;27171;51.812;19.514;2023-02-01T03:03:23;2.30;99.90
41427;DHT22;27171;51.812;19.514;2023-02-01T03:06:25;2.30;99.90
41427;DHT22;27171;51.812;19.514;2023-02-01T03:09:31;2.30;99.90
41427;DHT22;27171;51.812;19.514;2023-02-01T03:12:37;2.30;99.90
41427;DHT22;27171;51.812;19.514;2023-02-01T03:16:00;2.30;99.90
41427;DHT22;27171;51.812;19.514;2023-02-01T03:19:19;2.30;99.90
41427;DHT22;27171;51.812;19.514;2023-02-01T03:22:28;2.30;99.90
41427;DHT22;27171;51.812;19.514;2023-02-01T03:25:31;2.30;99.90
41427;DHT22;27171;51.812;19.514;2023-02-01T03:28:35;2.30;99.90
41427;DHT22;27171;51.812;19.514;2023-02-01T03:31:37;2.40;99.90
41427;DHT22;27171;51.812;19.514;2023-02-01T03:34:38;2.40;99.90
41427;DHT22;27171;51.812;19.514;2023-02-01T03:37:40;2.40;99.90
41427;DHT22;27171;51.812;19.514;2023-02-01T03:40:45;2.40;99.90
41427;DHT22;27171;51.812;19.514;2023-02-01T03:43:55;2.40;99.90
41427;DHT22;27171;51.812;19.514;2023-02-01T03:47:09;2.40;99.90
41427;DHT22;27171;51.812;19.514;2023-02-01T03:50:22;2.40;99.90
41427;DHT22;27171;51.812;19.514;2023-02-01T03:53:25;2.40;99.90
41427;DHT22;27171;51.812;19.514;2023-02-01T03:56:28;2.40;99.90
41427;DHT22;27171;51.812;19.514;2023-02-01T03:59:30;2.40;99.90
41427;DHT22;27171;51.812;19.514;2023-02-01T04:02:31;2.40;99.90
41427;DHT22;27171;51.812;19.514;2023-02-01T04:05:33;2.40;99.90
41427;DHT22;27171;51.812;19.514;2023-02-01T04:08:41;2.40;99.90
41427;DHT22;27171;51.812;19.514;2023-02-01T04:11:42;2.40;99.90
41427;DHT22;27171;51.812;19.514;2023-02-01T04:14:43;2.40;99.90
41427;DHT22;27171;51.812;19.514;2023-02-01T04:17:44;2.40;99.90
41427;DHT22;27171;51.812;19.514;2023-02-01T04:20:45;2.40;99.90
41427;DHT22;27171;51.812;19.514;2023-02-01T04:23:46;2.50;99.90
41427;DHT22;27171;51.812;19.514;2023-02-01T04:26:47;2.40;99.90
41427;DHT22;27171;51.812;19.514;2023-02-01T04:29:48;2.50;99.90
41427;DHT22;27171;51.812;19.514;2023-02-01T04:32:49;2.50;99.90
41427;DHT22;27171;51.812;19.514;2023-02-01T04:35:50;2.50;99.90
41427;DHT22;27171;51.812;19.514;2023-02-01T04:38:52;2.50;99.90
41427;DHT22;27171;51.812;19.514;2023-02-01T04:41:53;2.50;99.90
41427;DHT22;27171;51.812;19.514;2023-02-01T04:44:55;2.50;99.90
41427;DHT22;27171;51.812;19.514;2023-02-01T04:47:56;2.50;99.90
41427;DHT22;27171;51.812;19.514;2023-02-01T04:50:57;2.40;99.90
41427;DHT22;27171;51.812;19.514;2023-02-01T04:53:58;2.40;99.90
41427;DHT22;27171;51.812;19.514;2023-02-01T04:56:59;2.40;99.90
41427;DHT22;27171;51.812;19.514;2023-02-01T05:00:00;2.40;99.90
41427;DHT22;27171;51.812;19.514;2023-02-01T05:03:01;2.40;99.90
41427;DHT22;27171;51.812;19.514;2023-02-01T05:06:02;2.30;99.90
41427;DHT22;27171;51.812;19.514;2023-02-01T05:09:03;2.30;99.90
41427;DHT22;27171;51.812;19.514;2023-02-01T05:12:04;2.30;99.90
41427;DHT22;27171;51.812;19.514;2023-02-01T05:15:05;2.30;99.90
41427;DHT22;27171;51.812;19.514;2023-02-01T05:18:07;2.20;99.90
41427;DHT22;27171;51.812;19.514;2023-02-01T05:21:08;2.30;99.90
41427;DHT22;27171;51.812;19.514;2023-02-01T05:24:09;2.30;99.90
41427;DHT22;27171;51.812;19.514;2023-02-01T05:27:10;2.30;99.90
41427;DHT22;27171;51.812;19.514;2023-02-01T05:30:12;2.30;99.90
41427;DHT22;27171;51.812;19.514;2023-02-01T05:33:13;2.30;99.90
41427;DHT22;27171;51.812;19.514;2023-02-01T05:36:14;2.40;99.90
41427;DHT22;27171;51.812;19.514;2023-02-01T05:39:15;2.40;99.90
41427;DHT22;27171;51.812;19.514;2023-02-01T05:42:16;2.40;99.90
41427;DHT22;27171;51.812;19.514;2023-02-01T05:45:17;2.40;99.90
41427;DHT22;27171;51.812;19.514;2023-02-01T05:48:19;2.40;99.90
41427;DHT22;27171;51.812;19.514;2023-02-01T05:51:20;2.40;99.90
41427;DHT22;27171;51.812;19.514;2023-02-01T05:54:21;2.50;99.90
41427;DHT22;27171;51.812;19.514;2023-02-01T05:57:22;2.50;99.90
41427;DHT22;27171;51.812;19.514;2023-02-01T06:00:23;2.50;99.90
41427;DHT22;27171;51.812;19.514;2023-02-01T06:03:24;2.50;99.90
41427;DHT22;27171;51.812;19.514;2023-02-01T06:06:25;2.50;99.90
41427;DHT22;27171;51.812;19.514;2023-02-01T06:09:26;2.50;99.90
41427;DHT22;27171;51.812;19.514;2023-02-01T06:12:27;2.60;99.90
41427;DHT22;27171;51.812;19.514;2023-02-01T06:15:28;2.60;99.90
41427;DHT22;27171;51.812;19.514;2023-02-01T06:18:30;2.60;99.90
41427;DHT22;27171;51.812;19.514;2023-02-01T06:21:31;2.60;99.90
41427;DHT22;27171;51.812;19.514;2023-02-01T06:24:32;2.60;99.90
41427;DHT22;27171;51.812;19.514;2023-02-01T06:27:33;2.60;99.90
41427;DHT22;27171;51.812;19.514;2023-02-01T06:30:34;2.70;99.90
41427;DHT22;27171;51.812;19.514;2023-02-01T06:33:35;2.70;99.90
41427;DHT22;27171;51.812;19.514;2023-02-01T06:36:37;2.70;99.90
41427;DHT22;27171;51.812;19.514;2023-02-01T06:39:38;2.70;99.90
41427;DHT22;27171;51.812;19.514;2023-02-01T06:42:39;2.70;99.90
41427;DHT22;27171;51.812;19.514;2023-02-01T06:45:40;2.70;99.90
41427;DHT22;27171;51.812;19.514;2023-02-01T06:48:41;2.80;99.90
41427;DHT22;27171;51.812;19.514;2023-02-01T06:51:42;2.80;99.90
41427;DHT22;27171;51.812;19.514;2023-02-01T06:54:43;2.80;99.90
41427;DHT22;27171;51.812;19.514;2023-02-01T06:57:44;2.80;99.90
41427;DHT22;27171;51.812;19.514;2023-02-01T07:00:45;2.80;99.90
41427;DHT22;27171;51.812;19.514;2023-02-01T07:03:48;2.80;99.90
41427;DHT22;27171;51.812;19.514;2023-02-01T07:06:49;2.80;99.90
41427;DHT22;27171;51.812;19.514;2023-02-01T07:09:50;2.80;99.90
41427;DHT22;27171;51.812;19.514;2023-02-01T07:12:51;2.80;99.90
41427;DHT22;27171;51.812;19.514;2023-02-01T07:15:52;2.80;99.90
41427;DHT22;27171;51.812;19.514;2023-02-01T07:18:53;2.80;99.90
41427;DHT22;27171;51.812;19.514;2023-02-01T07:21:54;2.80;99.90
41427;DHT22;27171;51.812;19.514;2023-02-01T07:24:55;2.80;99.90
41427;DHT22;27171;51.812;19.514;2023-02-01T07:27:57;2.80;99.90
41427;DHT22;27171;51.812;19.514;2023-02-01T07:31:12;2.80;99.90
41427;DHT22;27171;51.812;19.514;2023-02-01T07:34:13;2.80;99.90
41427;DHT22;27171;51.812;19.514;2023-02-01T07:37:14;2.80;99.90
41427;DHT22;27171;51.812;19.514;2023-02-01T07:40:15;2.90;99.90
41427;DHT22;27171;51.812;19.514;2023-02-01T07:43:16;2.90;99.90
41427;DHT22;27171;51.812;19.514;2023-02-01T07:46:18;2.90;99.90
41427;DHT22;27171;51.812;19.514;2023-02-01T07:49:18;2.90;99.90
41427;DHT22;27171;51.812;19.514;2023-02-01T07:52:20;2.90;99.90
41427;DHT22;27171;51.812;19.514;2023-02-01T07:55:21;3.00;99.90
41427;DHT22;27171;51.812;19.514;2023-02-01T07:58:23;3.00;99.90
41427;DHT22;27171;51.812;19.514;2023-02-01T08:01:27;3.00;99.90
41427;DHT22;27171;51.812;19.514;2023-02-01T08:04:28;3.00;99.90
41427;DHT22;27171;51.812;19.514;2023-02-01T08:07:29;3.10;99.90
41427;DHT22;27171;51.812;19.514;2023-02-01T08:10:31;3.10;99.90
41427;DHT22;27171;51.812;19.514;2023-02-01T08:13:33;3.10;99.90
41427;DHT22;27171;51.812;19.514;2023-02-01T08:16:35;3.10;99.90
41427;DHT22;27171;51.812;19.514;2023-02-01T08:19:35;3.10;99.90
41427;DHT22;27171;51.812;19.514;2023-02-01T08:22:37;3.10;99.90
41427;DHT22;27171;51.812;19.514;2023-02-01T08:25:38;3.10;99.90
41427;DHT22;27171;51.812;19.514;2023-02-01T08:28:41;3.10;99.90
41427;DHT22;27171;51.812;19.514;2023-02-01T08:31:42;3.10;99.90
41427;DHT22;27171;51.812;19.514;2023-02-01T08:34:43;3.10;99.90
41427;DHT22;27171;51.812;19.514;2023-02-01T08:37:44;3.10;99.90
41427;DHT22;27171;51.812;19.514;2023-02-01T08:40:45;3.10;99.90
41427;DHT22;27171;51.812;19.514;2023-02-01T08:43:47;3.10;99.90
41427;DHT22;27171;51.812;19.514;2023-02-01T08:46:48;3.20;99.90
41427;DHT22;27171;51.812;19.514;2023-02-01T08:49:49;3.20;99.90
41427;DHT22;27171;51.812;19.514;2023-02-01T08:52:50;3.20;99.90
41427;DHT22;27171;51.812;19.514;2023-02-01T08:55:51;3.30;99.90
41427;DHT22;27171;51.812;19.514;2023-02-01T08:58:52;3.40;99.90
41427;DHT22;27171;51.812;19.514;2023-02-01T09:01:53;3.40;99.90
41427;DHT22;27171;51.812;19.514;2023-02-01T09:04:56;3.40;99.90
41427;DHT22;27171;51.812;19.514;2023-02-01T09:07:57;3.40;99.90
41427;DHT22;27171;51.812;19.514;2023-02-01T09:11:03;3.40;99.90
41427;DHT22;27171;51.812;19.514;2023-02-01T09:14:04;3.40;99.90
41427;DHT22;27171;51.812;19.514;2023-02-01T09:17:05;3.40;99.90
41427;DHT22;27171;51.812;19.514;2023-02-01T09:20:06;3.40;99.90
41427;DHT22;27171;51.812;19.514;2023-02-01T09:23:07;3.40;99.90
41427;DHT22;27171;51.812;19.514;2023-02-01T09:26:08;3.30;99.90
41427;DHT22;27171;51.812;19.514;2023-02-01T09:29:10;3.30;99.90
41427;DHT22;27171;51.812;19.514;2023-02-01T09:32:11;3.30;99.90
41427;DHT22;27171;51.812;19.514;2023-02-01T09:35:12;3.30;99.90
41427;DHT22;27171;51.812;19.514;2023-02-01T09:38:13;3.40;99.90
41427;DHT22;27171;51.812;19.514;2023-02-01T09:41:32;3.40;99.90
41427;DHT22;27171;51.812;19.514;2023-02-01T09:48:01;3.50;99.90
41427;DHT22;27171;51.812;19.514;2023-02-01T09:51:06;3.40;99.90
41427;DHT22;27171;51.812;19.514;2023-02-01T09:54:16;3.40;99.90
41427;DHT22;27171;51.812;19.514;2023-02-01T09:57:24;3.30;99.90
41427;DHT22;27171;51.812;19.514;2023-02-01T10:00:37;3.30;99.90
41427;DHT22;27171;51.812;19.514;2023-02-01T10:03:39;3.30;99.90
41427;DHT22;27171;51.812;19.514;2023-02-01T10:19:50;3.30;99.90
41427;DHT22;27171;51.812;19.514;2023-02-01T10:26:33;3.30;99.90
41427;DHT22;27171;51.812;19.514;2023-02-01T10:29:39;3.40;99.90
41427;DHT22;27171;51.812;19.514;2023-02-01T10:32:41;3.40;99.90
41427;DHT22;27171;51.812;19.514;2023-02-01T10:35:44;3.50;99.90
41427;DHT22;27171;51.812;19.514;2023-02-01T10:38:46;3.50;99.90
41427;DHT22;27171;51.812;19.514;2023-02-01T10:41:48;3.60;99.90
41427;DHT22;27171;51.812;19.514;2023-02-01T10:44:50;3.70;99.90
41427;DHT22;27171;51.812;19.514;2023-02-01T10:54:18;3.90;99.90
41427;DHT22;27171;51.812;19.514;2023-02-01T10:57:23;4.00;99.90
41427;DHT22;27171;51.812;19.514;2023-02-01T11:00:25;4.00;99.90
41427;DHT22;27171;51.812;19.514;2023-02-01T11:03:34;4.10;99.90
41427;DHT22;27171;51.812;19.514;2023-02-01T11:06:42;4.10;99.90
41427;DHT22;27171;51.812;19.514;2023-02-01T11:09:50;4.20;99.90
41427;DHT22;27171;51.812;19.514;2023-02-01T11:12:55;4.20;99.90
41427;DHT22;27171;51.812;19.514;2023-02-01T11:15:56;4.20;99.90
41427;DHT22;27171;51.812;19.514;2023-02-01T11:18:58;4.20;99.90
41427;DHT22;27171;51.812;19.514;2023-02-01T11:22:00;4.30;99.90
41427;DHT22;27171;51.812;19.514;2023-02-01T11:25:09;4.30;99.90
41427;DHT22;27171;51.812;19.514;2023-02-01T11:28:10;4.30;99.90
41427;DHT22;27171;51.812;19.514;2023-02-01T11:31:13;4.40;99.90
41427;DHT22;27171;51.812;19.514;2023-02-01T11:34:17;4.30;99.90
41427;DHT22;27171;51.812;19.514;2023-02-01T11:37:27;4.40;99.90
41427;DHT22;27171;51.812;19.514;2023-02-01T11:40:34;4.40;99.90
41427;DHT22;27171;51.812;19.514;2023-02-01T11:43:36;4.40;99.90
41427;DHT22;27171;51.812;19.514;2023-02-01T11:46:38;4.40;99.90
41427;DHT22;27171;51.812;19.514;2023-02-01T11:49:39;4.40;99.90
41427;DHT22;27171;51.812;19.514;2023-02-01T11:53:03;4.40;99.90
41427;DHT22;27171;51.812;19.514;2023-02-01T12:20:02;4.60;99.90
41427;DHT22;27171;51.812;19.514;2023-02-01T12:32:45;4.50;99.90
41427;DHT22;27171;51.812;19.514;2023-02-01T12:39:22;4.30;99.90
41427;DHT22;27171;51.812;19.514;2023-02-01T12:42:31;4.30;99.90
41427;DHT22;27171;51.812;19.514;2023-02-01T12:45:40;4.20;99.90
41427;DHT22;27171;51.812;19.514;2023-02-01T12:52:09;4.10;99.90
41427;DHT22;27171;51.812;19.514;2023-02-01T12:55:22;4.00;99.90
41427;DHT22;27171;51.812;19.514;2023-02-01T13:01:40;3.90;99.90
41427;DHT22;27171;51.812;19.514;2023-02-01T13:05:11;3.80;99.90
41427;DHT22;27171;51.812;19.514;2023-02-01T13:08:06;3.80;99.90
41427;DHT22;27171;51.812;19.514;2023-02-01T13:17:44;3.90;99.90
41427;DHT22;27171;51.812;19.514;2023-02-01T13:23:53;3.90;99.90
41427;DHT22;27171;51.812;19.514;2023-02-01T13:26:54;3.90;99.90
41427;DHT22;27171;51.812;19.514;2023-02-01T13:43:30;4.00;99.90
41427;DHT22;27171;51.812;19.514;2023-02-01T13:46:40;4.00;99.90
41427;DHT22;27171;51.812;19.514;2023-02-01T13:49:42;4.00;99.90
41427;DHT22;27171;51.812;19.514;2023-02-01T13:52:45;4.00;99.90
41427;DHT22;27171;51.812;19.514;2023-02-01T13:56:02;3.90;99.90
41427;DHT22;27171;51.812;19.514;2023-02-01T14:15:37;3.80;99.90
41427;DHT22;27171;51.812;19.514;2023-02-01T14:21:58;3.70;99.90
41427;DHT22;27171;51.812;19.514;2023-02-01T14:24:59;3.70;99.90
41427;DHT22;27171;51.812;19.514;2023-02-01T14:28:01;3.60;99.90
41427;DHT22;27171;51.812;19.514;2023-02-01T14:31:14;3.60;99.90
41427;DHT22;27171;51.812;19.514;2023-02-01T14:37:43;3.50;99.90
41427;DHT22;27171;51.812;19.514;2023-02-01T14:40:44;3.50;99.90
41427;DHT22;27171;51.812;19.514;2023-02-01T14:43:49;3.50;99.90
41427;DHT22;27171;51.812;19.514;2023-02-01T14:47:05;3.50;99.90
41427;DHT22;27171;51.812;19.514;2023-02-01T14:56:12;3.50;99.90
41427;DHT22;27171;51.812;19.514;2023-02-01T14:59:16;3.50;99.90
41427;DHT22;27171;51.812;19.514;2023-02-01T15:02:21;3.40;99.90
41427;DHT22;27171;51.812;19.514;2023-02-01T15:05:32;3.50;99.90
41427;DHT22;27171;51.812;19.514;2023-02-01T15:08:36;3.40;99.90
41427;DHT22;27171;51.812;19.514;2023-02-01T15:15:22;3.40;99.90
41427;DHT22;27171;51.812;19.514;2023-02-01T15:18:24;3.40;99.90
41427;DHT22;27171;51.812;19.514;2023-02-01T15:21:24;3.40;99.90
41427;DHT22;27171;51.812;19.514;2023-02-01T15:24:30;3.40;99.90
41427;DHT22;27171;51.812;19.514;2023-02-01T15:27:33;3.30;99.90
41427;DHT22;27171;51.812;19.514;2023-02-01T15:30:35;3.30;99.90
41427;DHT22;27171;51.812;19.514;2023-02-01T15:33:36;3.30;99.90
41427;DHT22;27171;51.812;19.514;2023-02-01T15:36:37;3.30;99.90
41427;DHT22;27171;51.812;19.514;2023-02-01T15:40:05;3.30;99.90
41427;DHT22;27171;51.812;19.514;2023-02-01T15:43:18;3.30;99.90
41427;DHT22;27171;51.812;19.514;2023-02-01T15:46:40;3.30;99.90
41427;DHT22;27171;51.812;19.514;2023-02-01T15:49:44;3.20;99.90
41427;DHT22;27171;51.812;19.514;2023-02-01T15:52:51;3.20;99.90
41427;DHT22;27171;51.812;19.514;2023-02-01T15:55:55;3.20;99.90
41427;DHT22;27171;51.812;19.514;2023-02-01T15:59:00;3.20;99.90
41427;DHT22;27171;51.812;19.514;2023-02-01T16:02:01;3.20;99.90
41427;DHT22;27171;51.812;19.514;2023-02-01T16:05:03;3.10;99.90
41427;DHT22;27171;51.812;19.514;2023-02-01T16:08:16;3.20;99.90
41427;DHT22;27171;51.812;19.514;2023-02-01T16:14:29;3.10;99.90
41427;DHT22;27171;51.812;19.514;2023-02-01T16:17:30;3.10;99.90
41427;DHT22;27171;51.812;19.514;2023-02-01T16:20:32;3.10;99.90
41427;DHT22;27171;51.812;19.514;2023-02-01T16:23:33;3.10;99.90
41427;DHT22;27171;51.812;19.514;2023-02-01T16:26:34;3.10;99.90
41427;DHT22;27171;51.812;19.514;2023-02-01T16:29:36;3.10;99.90
41427;DHT22;27171;51.812;19.514;2023-02-01T16:32:37;3.00;99.90
41427;DHT22;27171;51.812;19.514;2023-02-01T16:35:38;3.00;99.90
41427;DHT22;27171;51.812;19.514;2023-02-01T16:38:39;2.90;99.90
41427;DHT22;27171;51.812;19.514;2023-02-01T16:41:40;2.90;99.90
41427;DHT22;27171;51.812;19.514;2023-02-01T16:44:42;2.90;99.90
41427;DHT22;27171;51.812;19.514;2023-02-01T16:47:48;2.90;99.90
41427;DHT22;27171;51.812;19.514;2023-02-01T16:50:53;2.80;99.90
41427;DHT22;27171;51.812;19.514;2023-02-01T16:53:55;2.90;99.90
41427;DHT22;27171;51.812;19.514;2023-02-01T16:56:56;2.80;99.90
41427;DHT22;27171;51.812;19.514;2023-02-01T16:59:57;2.80;99.90
41427;DHT22;27171;51.812;19.514;2023-02-01T17:02:58;2.80;99.90
41427;DHT22;27171;51.812;19.514;2023-02-01T17:05:59;2.80;99.90
41427;DHT22;27171;51.812;19.514;2023-02-01T17:09:00;2.80;99.90
41427;DHT22;27171;51.812;19.514;2023-02-01T17:12:03;2.80;99.90
41427;DHT22;27171;51.812;19.514;2023-02-01T17:15:05;2.80;99.90
41427;DHT22;27171;51.812;19.514;2023-02-01T17:18:14;2.80;99.90
41427;DHT22;27171;51.812;19.514;2023-02-01T17:21:16;2.80;99.90
41427;DHT22;27171;51.812;19.514;2023-02-01T17:24:22;2.80;99.90
41427;DHT22;27171;51.812;19.514;2023-02-01T17:27:24;2.80;99.90
41427;DHT22;27171;51.812;19.514;2023-02-01T17:30:25;2.80;99.90
41427;DHT22;27171;51.812;19.514;2023-02-01T17:33:36;2.80;99.90
41427;DHT22;27171;51.812;19.514;2023-02-01T17:36:37;2.80;99.90
41427;DHT22;27171;51.812;19.514;2023-02-01T17:39:38;2.90;99.90
41427;DHT22;27171;51.812;19.514;2023-02-01T17:42:39;2.90;99.90
41427;DHT22;27171;51.812;19.514;2023-02-01T17:45:52;2.90;99.90
41427;DHT22;27171;51.812;19.514;2023-02-01T17:48:54;2.90;99.90
41427;DHT22;27171;51.812;19.514;2023-02-01T17:51:56;2.90;99.90
41427;DHT22;27171;51.812;19.514;2023-02-01T17:54:58;2.90;99.90
41427;DHT22;27171;51.812;19.514;2023-02-01T17:57:59;2.90;99.90
41427;DHT22;27171;51.812;19.514;2023-02-01T18:01:00;2.90;99.90
41427;DHT22;27171;51.812;19.514;2023-02-01T18:04:01;2.90;99.90
41427;DHT22;27171;51.812;19.514;2023-02-01T18:07:02;2.90;99.90
41427;DHT22;27171;51.812;19.514;2023-02-01T18:10:03;3.00;99.90
41427;DHT22;27171;51.812;19.514;2023-02-01T18:13:04;3.00;99.90
41427;DHT22;27171;51.812;19.514;2023-02-01T18:16:17;3.00;99.90
41427;DHT22;27171;51.812;19.514;2023-02-01T18:19:19;3.00;99.90
41427;DHT22;27171;51.812;19.514;2023-02-01T18:22:22;2.90;99.90
41427;DHT22;27171;51.812;19.514;2023-02-01T18:25:26;2.90;99.90
41427;DHT22;27171;51.812;19.514;2023-02-01T18:28:27;2.90;99.90
41427;DHT22;27171;51.812;19.514;2023-02-01T18:31:29;2.90;99.90
41427;DHT22;27171;51.812;19.514;2023-02-01T18:34:30;2.90;99.90
41427;DHT22;27171;51.812;19.514;2023-02-01T18:37:31;2.80;99.90
41427;DHT22;27171;51.812;19.514;2023-02-01T18:40:35;2.80;99.90
41427;DHT22;27171;51.812;19.514;2023-02-01T18:43:37;2.80;99.90
41427;DHT22;27171;51.812;19.514;2023-02-01T18:46:38;2.80;99.90
41427;DHT22;27171;51.812;19.514;2023-02-01T18:49:39;2.80;99.90
41427;DHT22;27171;51.812;19.514;2023-02-01T18:52:40;2.80;99.90
41427;DHT22;27171;51.812;19.514;2023-02-01T18:55:42;2.80;99.90
41427;DHT22;27171;51.812;19.514;2023-02-01T18:58:44;2.80;99.90
41427;DHT22;27171;51.812;19.514;2023-02-01T19:01:45;2.80;99.90
41427;DHT22;27171;51.812;19.514;2023-02-01T19:04:47;2.80;99.90
41427;DHT22;27171;51.812;19.514;2023-02-01T19:07:48;2.70;99.90
41427;DHT22;27171;51.812;19.514;2023-02-01T19:10:51;2.70;99.90
41427;DHT22;27171;51.812;19.514;2023-02-01T19:13:52;2.60;99.90
41427;DHT22;27171;51.812;19.514;2023-02-01T19:16:53;2.60;99.90
41427;DHT22;27171;51.812;19.514;2023-02-01T19:19:54;2.60;99.90
41427;DHT22;27171;51.812;19.514;2023-02-01T19:22:56;2.50;99.90
41427;DHT22;27171;51.812;19.514;2023-02-01T19:25:57;2.50;99.90
41427;DHT22;27171;51.812;19.514;2023-02-01T19:28:59;2.50;99.90
41427;DHT22;27171;51.812;19.514;2023-02-01T19:32:00;2.50;99.90
41427;DHT22;27171;51.812;19.514;2023-02-01T19:35:01;2.50;99.90
41427;DHT22;27171;51.812;19.514;2023-02-01T19:38:02;2.50;99.90
41427;DHT22;27171;51.812;19.514;2023-02-01T19:41:04;2.40;99.90
41427;DHT22;27171;51.812;19.514;2023-02-01T19:44:05;2.50;99.90
41427;DHT22;27171;51.812;19.514;2023-02-01T19:47:06;2.50;99.90
41427;DHT22;27171;51.812;19.514;2023-02-01T19:50:09;2.40;99.90
41427;DHT22;27171;51.812;19.514;2023-02-01T19:53:11;2.50;99.90
41427;DHT22;27171;51.812;19.514;2023-02-01T19:56:13;2.50;99.90
41427;DHT22;27171;51.812;19.514;2023-02-01T19:59:14;2.50;99.90
41427;DHT22;27171;51.812;19.514;2023-02-01T20:02:15;2.50;99.90
41427;DHT22;27171;51.812;19.514;2023-02-01T20:05:16;2.50;99.90
41427;DHT22;27171;51.812;19.514;2023-02-01T20:08:18;2.50;99.90
41427;DHT22;27171;51.812;19.514;2023-02-01T20:11:19;2.60;99.90
41427;DHT22;27171;51.812;19.514;2023-02-01T20:14:21;2.60;99.90
41427;DHT22;27171;51.812;19.514;2023-02-01T20:17:23;2.60;99.90
41427;DHT22;27171;51.812;19.514;2023-02-01T20:20:24;2.60;99.90
41427;DHT22;27171;51.812;19.514;2023-02-01T20:23:27;2.60;99.90
41427;DHT22;27171;51.812;19.514;2023-02-01T20:26:28;2.70;99.90
41427;DHT22;27171;51.812;19.514;2023-02-01T20:29:29;2.70;99.90
41427;DHT22;27171;51.812;19.514;2023-02-01T20:32:30;2.70;99.90
41427;DHT22;27171;51.812;19.514;2023-02-01T20:35:31;2.80;99.90
41427;DHT22;27171;51.812;19.514;2023-02-01T20:38:33;2.80;99.90
41427;DHT22;27171;51.812;19.514;2023-02-01T20:41:34;2.80;99.90
41427;DHT22;27171;51.812;19.514;2023-02-01T20:44:35;2.80;99.90
41427;DHT22;27171;51.812;19.514;2023-02-01T20:47:36;2.80;99.90
41427;DHT22;27171;51.812;19.514;2023-02-01T20:50:37;2.80;99.90
41427;DHT22;27171;51.812;19.514;2023-02-01T20:53:39;2.80;99.90
41427;DHT22;27171;51.812;19.514;2023-02-01T20:56:42;2.80;99.90
41427;DHT22;27171;51.812;19.514;2023-02-01T20:59:45;2.80;99.90
41427;DHT22;27171;51.812;19.514;2023-02-01T21:02:46;2.80;99.90
41427;DHT22;27171;51.812;19.514;2023-02-01T21:05:51;2.80;99.90
41427;DHT22;27171;51.812;19.514;2023-02-01T21:08:53;2.80;99.90
41427;DHT22;27171;51.812;19.514;2023-02-01T21:11:54;2.80;99.90
41427;DHT22;27171;51.812;19.514;2023-02-01T21:14:55;2.80;99.90
41427;DHT22;27171;51.812;19.514;2023-02-01T21:17:56;2.80;99.90
41427;DHT22;27171;51.812;19.514;2023-02-01T21:21:04;2.80;99.90
41427;DHT22;27171;51.812;19.514;2023-02-01T21:24:05;2.80;99.90
41427;DHT22;27171;51.812;19.514;2023-02-01T21:27:07;2.90;99.90
41427;DHT22;27171;51.812;19.514;2023-02-01T21:30:09;2.80;99.90
41427;DHT22;27171;51.812;19.514;2023-02-01T21:33:10;2.90;99.90
41427;DHT22;27171;51.812;19.514;2023-02-01T21:36:12;2.90;99.90
41427;DHT22;27171;51.812;19.514;2023-02-01T21:39:14;2.90;99.90
41427;DHT22;27171;51.812;19.514;2023-02-01T21:42:15;2.90;99.90
41427;DHT22;27171;51.812;19.514;2023-02-01T21:45:17;2.90;99.90
41427;DHT22;27171;51.812;19.514;2023-02-01T21:48:18;2.90;99.90
41427;DHT22;27171;51.812;19.514;2023-02-01T21:51:19;2.90;99.90
41427;DHT22;27171;51.812;19.514;2023-02-01T21:54:20;2.80;99.90
41427;DHT22;27171;51.812;19.514;2023-02-01T21:57:21;2.80;99.90